Time;durP1;ratioP1;P1;durP2;ratioP2;P2;SDS_P1;SDS_P2;PMS_P1;PMS_P2;Temp;Humidity;BMP_temperature;BMP_pressure;BME280_temperature;BME280_humidity;BME280_pressure;Samples;Min_cycle;Max_cycle;Signal;HPM_P1;HPM_P2
2023/03/27 04:11:33;;;;;;;;;;;;;;;10.14;68.26;96601.09;4190801;28;10307;-68
2023/03/27 04:13:36;;;;;;;;;;;;;;;10.41;67.94;96605.53;4172803;28;5734;-68
2023/03/27 04:15:39;;;;;;;;;;;;;;;10.63;67.38;96613.34;4170495;28;5737;-68
2023/03/27 04:17:42;;;;;;;;;;;;;;;10.80;67.40;96598.78;4173031;28;5874;-68
2023/03/27 04:19:45;;;;;;;;;;;;;;;10.94;67.15;96613.66;4166882;28;5751;-68
2023/03/27 04:21:51;;;;;;;;;;;;;;;11.06;66.63;96606.78;4180994;28;5749;-69
2023/03/27 04:24:01;;;;;;;;;;;;;;;11.17;66.28;96615.16;4168852;28;5879;-69
2023/03/27 04:26:04;;;;;;;;;;;;;;;11.20;66.08;96615.53;4177806;28;5840;-68
2023/03/27 04:28:15;;;;;;;;;;;;;;;11.28;65.83;96614.56;4176771;28;5821;-68
2023/03/27 04:30:21;;;;;;;;;;;;;;;11.33;66.08;96610.28;4180865;28;5801;-68
2023/03/27 04:32:25;;;;;;;;;;;;;;;11.39;66.08;96619.25;4172426;28;5721;-68
2023/03/27 04:34:28;;;;;;;;;;;;;;;11.45;65.70;96630.88;4181183;28;5734;-68
2023/03/27 04:36:30;;;;;;;;;;;;;;;11.49;65.78;96614.38;4181298;28;5708;-68
2023/03/27 04:38:33;;;;;;;;;;;;;;;11.53;65.58;96622.72;4178906;28;5896;-68
2023/03/27 04:40:37;;;;;;;;;;;;;;;11.59;65.58;96624.56;4177943;28;5734;-68
2023/03/27 04:42:41;;;;;;;;;;;;;;;11.62;65.46;96619.66;4178723;28;5714;-69
2023/03/27 04:44:46;;;;;;;;;;;;;;;11.64;65.36;96630.03;4181233;28;5911;-69
2023/03/27 04:46:49;;;;;;;;;;;;;;;11.65;65.32;96627.19;4177847;28;5841;-68
2023/03/27 04:48:52;;;;;;;;;;;;;;;11.65;64.87;96634.31;4176903;28;5697;-69
2023/03/27 04:50:55;;;;;;;;;;;;;;;11.71;64.93;96638.00;4180863;28;5757;-68
2023/03/27 04:53:00;;;;;;;;;;;;;;;11.73;64.96;96639.41;4171768;28;5867;-68
2023/03/27 04:55:05;;;;;;;;;;;;;;;11.74;64.91;96642.88;4176253;28;5697;-68
2023/03/27 04:57:08;;;;;;;;;;;;;;;11.73;64.72;96647.38;4178168;28;5761;-68
2023/03/27 04:59:12;;;;;;;;;;;;;;;11.73;64.85;96650.00;4178284;28;5821;-68
2023/03/27 05:01:17;;;;;;;;;;;;;;;11.73;64.71;96651.84;4179128;28;5791;-68
2023/03/27 05:03:21;;;;;;;;;;;;;;;11.73;64.51;96649.19;4177819;28;6395;-69
2023/03/27 05:05:24;;;;;;;;;;;;;;;11.76;64.65;96646.13;4178532;28;5705;-69
2023/03/27 05:07:27;;;;;;;;;;;;;;;11.74;64.16;96656.94;4175344;28;5734;-68
2023/03/27 05:09:30;;;;;;;;;;;;;;;11.71;64.04;96659.19;4177416;28;5833;-69
2023/03/27 05:11:33;;;;;;;;;;;;;;;11.66;64.06;96668.56;4167663;28;5767;-69
2023/03/27 05:13:36;;;;;;;;;;;;;;;11.64;63.83;96670.56;4162597;28;5762;-69
2023/03/27 05:15:39;;;;;;;;;;;;;;;11.65;63.57;96681.97;4155860;28;5719;-69
2023/03/27 05:17:45;;;;;;;;;;;;;;;11.61;63.61;96678.94;4162307;28;5746;-69
2023/03/27 05:19:48;;;;;;;;;;;;;;;11.61;63.63;96686.88;4160317;28;5859;-69
2023/03/27 05:21:51;;;;;;;;;;;;;;;11.61;63.75;96688.72;4161435;28;5746;-69
2023/03/27 05:23:54;;;;;;;;;;;;;;;11.60;63.56;96693.19;4159945;28;5782;-69
2023/03/27 05:25:57;;;;;;;;;;;;;;;11.62;63.48;96700.94;4164040;28;5974;-69
2023/03/27 05:28:02;;;;;;;;;;;;;;;11.63;63.33;96700.72;4157501;28;6443;-70
2023/03/27 05:30:06;;;;;;;;;;;;;;;11.63;63.24;96708.66;4160866;28;5727;-68
2023/03/27 05:32:10;;;;;;;;;;;;;;;11.61;63.24;96712.53;4160514;28;5913;-71
2023/03/27 05:34:14;;;;;;;;;;;;;;;11.60;62.82;96711.72;4167247;28;5754;-76
2023/03/27 05:36:17;;;;;;;;;;;;;;;11.57;62.84;96712.13;4165738;28;5788;-74
2023/03/27 05:38:21;;;;;;;;;;;;;;;11.58;63.09;96711.13;4163608;28;5803;-74
2023/03/27 05:40:26;;;;;;;;;;;;;;;11.58;62.76;96716.41;4153727;28;5743;-74
2023/03/27 05:42:29;;;;;;;;;;;;;;;11.57;62.79;96721.91;4165705;28;5840;-74
2023/03/27 05:44:31;;;;;;;;;;;;;;;11.60;62.76;96729.44;4169784;28;5813;-74
2023/03/27 05:46:34;;;;;;;;;;;;;;;11.60;62.44;96729.44;4169018;28;5824;-74
2023/03/27 05:48:38;;;;;;;;;;;;;;;11.59;62.51;96746.34;4154026;28;5838;-75
2023/03/27 05:50:42;;;;;;;;;;;;;;;11.61;62.16;96757.56;4153677;28;5759;-74
2023/03/27 05:52:45;;;;;;;;;;;;;;;11.60;62.30;96754.09;4153815;28;5759;-75
2023/03/27 05:54:48;;;;;;;;;;;;;;;11.61;62.21;96760.19;4164506;28;5730;-75
2023/03/27 05:56:51;;;;;;;;;;;;;;;11.58;62.20;96766.72;4159014;28;5866;-73
2023/03/27 05:58:54;;;;;;;;;;;;;;;11.53;61.88;96774.44;4156945;28;5719;-73
2023/03/27 06:00:57;;;;;;;;;;;;;;;11.51;61.51;96781.75;4157403;28;5736;-73
2023/03/27 06:03:02;;;;;;;;;;;;;;;11.50;61.61;96776.66;4157706;28;5899;-74
2023/03/27 06:05:09;;;;;;;;;;;;;;;11.46;61.60;96773.59;4157426;28;5858;-73
2023/03/27 06:07:13;;;;;;;;;;;;;;;11.41;61.52;96778.66;4162052;28;5759;-74
2023/03/27 06:09:16;;;;;;;;;;;;;;;11.41;61.08;96786.59;4168029;28;5734;-73
2023/03/27 06:11:19;;;;;;;;;;;;;;;11.42;61.26;96784.78;4160170;28;6586;-71
2023/03/27 06:13:23;;;;;;;;;;;;;;;11.44;61.16;96785.38;4151411;28;5882;-73
2023/03/27 06:15:26;;;;;;;;;;;;;;;11.45;61.05;96789.69;4160010;28;6405;-74
2023/03/27 06:17:29;;;;;;;;;;;;;;;11.44;60.95;96794.19;4158932;28;5778;-73
2023/03/27 06:19:31;;;;;;;;;;;;;;;11.43;60.85;96789.06;4168621;28;5805;-74
2023/03/27 06:21:34;;;;;;;;;;;;;;;11.41;60.88;96781.31;4169862;28;5734;-74
2023/03/27 06:23:39;;;;;;;;;;;;;;;11.43;60.66;96789.88;4165086;28;5100;-73
2023/03/27 06:25:42;;;;;;;;;;;;;;;11.43;60.75;96791.69;4169439;28;5730;-74
2023/03/27 06:27:48;;;;;;;;;;;;;;;11.44;60.43;96788.88;4161846;28;5850;-73
2023/03/27 06:29:51;;;;;;;;;;;;;;;11.48;60.60;96787.47;4166597;28;5802;-73
2023/03/27 06:31:56;;;;;;;;;;;;;;;11.47;60.24;96795.59;4156058;28;6520;-74
2023/03/27 06:33:59;;;;;;;;;;;;;;;11.44;60.39;96796.81;4169123;28;5745;-73
2023/03/27 06:36:04;;;;;;;;;;;;;;;11.42;60.28;96804.13;4161192;28;6428;-74
2023/03/27 06:38:07;;;;;;;;;;;;;;;11.42;60.09;96804.13;4156100;28;5747;-73
2023/03/27 06:40:19;;;;;;;;;;;;;;;11.45;60.35;96814.34;4158823;28;5837;-74
2023/03/27 06:42:22;;;;;;;;;;;;;;;11.45;59.81;96830.22;4158091;28;5734;-74
2023/03/27 06:44:25;;;;;;;;;;;;;;;11.42;59.76;96835.88;4161671;28;5747;-74
2023/03/27 06:46:28;;;;;;;;;;;;;;;11.27;59.97;96830.75;4161926;28;5734;-74
2023/03/27 06:48:49;;;;;;;;;;;;;;;11.19;59.78;96830.91;4161160;28;5730;-74
2023/03/27 06:50:53;;;;;;;;;;;;;;;11.22;59.65;96845.59;4161354;28;5834;-74
2023/03/27 06:52:57;;;;;;;;;;;;;;;11.18;59.48;96844.31;4158106;28;5852;-74
2023/03/27 06:55:02;;;;;;;;;;;;;;;11.04;59.60;96849.53;4161399;28;5666;-74
2023/03/27 06:57:06;;;;;;;;;;;;;;;10.98;59.31;96854.78;4166211;28;5809;-74
2023/03/27 06:59:09;;;;;;;;;;;;;;;10.99;59.58;96859.91;4160602;28;5842;-74
2023/03/27 07:01:12;;;;;;;;;;;;;;;11.00;59.37;96861.53;4164722;28;6035;-73
2023/03/27 07:03:16;;;;;;;;;;;;;;;10.93;59.30;96863.31;4162395;28;5763;-74
2023/03/27 07:05:21;;;;;;;;;;;;;;;10.96;58.92;96872.69;4167620;28;5817;-73
2023/03/27 07:07:25;;;;;;;;;;;;;;;10.81;58.97;96871.97;4162379;28;5767;-74
2023/03/27 07:09:27;;;;;;;;;;;;;;;10.78;59.24;96881.13;4166357;28;5730;-74
2023/03/27 07:11:30;;;;;;;;;;;;;;;10.83;59.01;96875.25;4168221;28;5742;-74
2023/03/27 07:13:35;;;;;;;;;;;;;;;10.84;58.89;96875.03;4158149;28;5818;-75
2023/03/27 07:15:38;;;;;;;;;;;;;;;10.98;58.57;96889.16;4167585;28;5742;-74
2023/03/27 07:17:43;;;;;;;;;;;;;;;11.08;58.54;96898.41;4160437;28;5924;-74
2023/03/27 07:19:51;;;;;;;;;;;;;;;11.09;58.17;96900.03;4166346;28;5153;-74
2023/03/27 07:21:53;;;;;;;;;;;;;;;11.11;58.35;96899.03;4150322;28;7753;-74
2023/03/27 07:23:56;;;;;;;;;;;;;;;11.01;58.10;96902.03;4151909;28;5751;-74
2023/03/27 07:26:00;;;;;;;;;;;;;;;11.11;58.34;96909.63;4152321;28;5772;-73
2023/03/27 07:28:05;;;;;;;;;;;;;;;11.20;57.91;96916.38;4162687;28;5876;-73
2023/03/27 07:30:12;;;;;;;;;;;;;;;11.07;57.89;96917.94;4155244;28;5841;-73
2023/03/27 07:32:17;;;;;;;;;;;;;;;11.02;57.90;96920.34;4158429;28;5825;-74
2023/03/27 07:34:36;;;;;;;;;;;;;;;11.08;57.77;96926.69;4161028;28;5746;-74
2023/03/27 07:36:38;;;;;;;;;;;;;;;11.13;57.67;96942.00;4160518;28;5763;-74
2023/03/27 07:38:42;;;;;;;;;;;;;;;11.15;57.23;96940.78;4168154;28;5734;-74
2023/03/27 07:40:45;;;;;;;;;;;;;;;11.17;57.29;96940.59;4168491;28;5821;-74
2023/03/27 07:42:50;;;;;;;;;;;;;;;11.19;57.09;96947.31;4165659;28;5765;-75
2023/03/27 07:44:53;;;;;;;;;;;;;;;11.29;57.05;96954.91;4155132;28;5746;-74
2023/03/27 07:46:57;;;;;;;;;;;;;;;11.31;56.82;96948.41;4168310;28;5738;-74
2023/03/27 07:49:00;;;;;;;;;;;;;;;11.25;56.69;96961.63;4162785;28;5751;-74
2023/03/27 07:51:04;;;;;;;;;;;;;;;11.24;56.70;96965.28;4152276;28;5966;-75
2023/03/27 07:53:10;;;;;;;;;;;;;;;11.17;56.45;96967.06;4159069;28;6727;-75
2023/03/27 07:55:35;;;;;;;;;;;;;;;11.18;56.51;96966.84;4156180;28;5835;-73
2023/03/27 07:57:39;;;;;;;;;;;;;;;11.18;56.29;96971.34;4157621;28;5902;-75
2023/03/27 08:00:02;;;;;;;;;;;;;;;11.16;56.28;96979.47;4165527;28;5813;-73
2023/03/27 08:02:07;;;;;;;;;;;;;;;11.07;56.11;96977.97;4162030;28;5768;-71
2023/03/27 08:04:10;;;;;;;;;;;;;;;11.02;55.74;96983.03;4150781;28;5751;-72
2023/03/27 08:06:14;;;;;;;;;;;;;;;10.88;55.75;96979.47;4154281;28;5857;-75
2023/03/27 08:08:17;;;;;;;;;;;;;;;10.82;55.54;96977.56;4154269;28;5866;-78
2023/03/27 08:10:20;;;;;;;;;;;;;;;10.76;55.71;96983.63;4165927;28;5766;-77
2023/03/27 08:12:23;;;;;;;;;;;;;;;10.70;55.66;96984.38;4159158;28;5763;-75
2023/03/27 08:14:26;;;;;;;;;;;;;;;10.66;55.55;96977.84;4160595;28;5758;-73
2023/03/27 08:16:29;;;;;;;;;;;;;;;10.71;55.49;96992.09;4163977;28;5735;-76
2023/03/27 08:18:33;;;;;;;;;;;;;;;10.71;55.49;96989.47;4164809;28;5715;-78
2023/03/27 08:20:36;;;;;;;;;;;;;;;10.60;55.34;97005.81;4152615;28;5759;-70
2023/03/27 08:22:39;;;;;;;;;;;;;;;10.36;55.32;96998.25;4162577;28;6415;-70
2023/03/27 08:24:45;;;;;;;;;;;;;;;10.41;55.21;97017.81;4159249;28;5686;-70
2023/03/27 08:26:49;;;;;;;;;;;;;;;10.46;55.19;97019.91;4164148;28;5935;-71
2023/03/27 08:28:52;;;;;;;;;;;;;;;10.52;54.94;97023.63;4151632;28;5755;-69
2023/03/27 08:30:55;;;;;;;;;;;;;;;10.46;54.63;97020.72;4161763;28;5738;-69
2023/03/27 08:33:05;;;;;;;;;;;;;;;10.38;54.96;97023.47;4166253;28;5738;-70
2023/03/27 08:35:10;;;;;;;;;;;;;;;10.45;54.47;97029.66;4159678;28;6449;-70
2023/03/27 08:37:13;;;;;;;;;;;;;;;10.49;54.20;97025.63;4155833;28;5892;-70
2023/03/27 08:39:16;;;;;;;;;;;;;;;10.49;54.17;97023.00;4164867;28;5738;-70
2023/03/27 08:41:26;;;;;;;;;;;;;;;10.37;53.98;97036.88;4166634;28;5832;-70
2023/03/27 08:43:36;;;;;;;;;;;;;;;10.17;53.59;97033.97;4164919;28;5725;-71
2023/03/27 08:45:45;;;;;;;;;;;;;;;10.14;53.89;97042.25;4150323;28;5760;-70
2023/03/27 08:47:53;;;;;;;;;;;;;;;10.06;53.52;97045.81;4153177;28;5748;-68
2023/03/27 08:49:58;;;;;;;;;;;;;;;9.88;53.41;97038.28;4166610;28;5825;-69
2023/03/27 08:52:07;;;;;;;;;;;;;;;9.95;53.30;97042.81;4158039;28;5764;-69
2023/03/27 08:54:17;;;;;;;;;;;;;;;10.08;53.55;97037.69;4161454;28;5759;-70
2023/03/27 08:56:21;;;;;;;;;;;;;;;10.23;53.13;97038.56;4153297;28;5895;-69
2023/03/27 08:58:24;;;;;;;;;;;;;;;10.29;53.01;97056.28;4152732;28;5851;-69
2023/03/27 09:00:34;;;;;;;;;;;;;;;10.32;52.75;97061.22;4152737;28;5864;-70
2023/03/27 09:02:45;;;;;;;;;;;;;;;10.40;52.67;97045.25;4152476;28;5764;-69
2023/03/27 09:04:58;;;;;;;;;;;;;;;10.52;52.42;97066.72;4152618;28;5771;-69
2023/03/27 09:07:05;;;;;;;;;;;;;;;10.65;52.19;97066.09;4160031;28;5693;-70
2023/03/27 09:09:20;;;;;;;;;;;;;;;10.66;52.24;97084.41;4157879;28;5759;-70
2023/03/27 09:11:35;;;;;;;;;;;;;;;10.63;52.07;97081.28;4167983;28;5738;-69
2023/03/27 09:13:44;;;;;;;;;;;;;;;10.63;51.91;97083.94;4152305;28;5748;-70
2023/03/27 09:15:52;;;;;;;;;;;;;;;10.69;52.04;97093.78;4152609;28;5783;-69
2023/03/27 09:18:01;;;;;;;;;;;;;;;10.81;51.67;97087.00;4159821;28;5913;-69
2023/03/27 09:20:11;;;;;;;;;;;;;;;10.89;51.78;97100.13;4161141;28;5755;-69
2023/03/27 09:22:21;;;;;;;;;;;;;;;10.98;51.56;97104.25;4160841;28;5775;-69
2023/03/27 09:24:28;;;;;;;;;;;;;;;11.11;51.31;97094.84;4152324;28;5739;-69
2023/03/27 09:26:36;;;;;;;;;;;;;;;11.23;51.00;97111.84;4165208;28;5734;-69
2023/03/27 09:28:49;;;;;;;;;;;;;;;11.24;51.11;97106.38;4159534;28;5730;-69
2023/03/27 09:30:52;;;;;;;;;;;;;;;11.22;50.75;97107.56;4162234;28;5961;-69
2023/03/27 09:32:59;;;;;;;;;;;;;;;11.15;50.46;97115.44;4156966;28;5767;-69
2023/03/27 09:35:03;;;;;;;;;;;;;;;11.12;50.86;97120.28;4160350;28;5846;-70
2023/03/27 09:37:11;;;;;;;;;;;;;;;11.13;50.59;97116.63;4165657;28;5742;-69
2023/03/27 09:39:21;;;;;;;;;;;;;;;11.13;50.56;97125.38;4154815;28;5751;-69
2023/03/27 09:41:28;;;;;;;;;;;;;;;11.18;50.37;97130.09;4160983;28;5751;-69
2023/03/27 09:43:39;;;;;;;;;;;;;;;11.22;50.35;97112.84;4152478;28;5839;-69
2023/03/27 09:45:43;;;;;;;;;;;;;;;11.20;50.25;97112.22;4166291;28;5836;-69
2023/03/27 09:47:57;;;;;;;;;;;;;;;11.20;50.36;97112.22;4155987;28;5743;-69
2023/03/27 09:50:18;;;;;;;;;;;;;;;11.22;50.30;97105.75;4158242;28;5742;-69
2023/03/27 09:52:34;;;;;;;;;;;;;;;11.16;49.95;97103.00;4168842;28;5657;-70
2023/03/27 09:54:52;;;;;;;;;;;;;;;11.07;50.02;97116.38;4153168;28;6689;-69
2023/03/27 09:57:03;;;;;;;;;;;;;;;10.96;49.94;97129.25;4156648;28;5744;-69
2023/03/27 09:59:19;;;;;;;;;;;;;;;10.79;50.11;97126.03;4157001;28;5868;-69
2023/03/27 10:01:33;;;;;;;;;;;;;;;10.74;50.01;97123.13;4152505;28;5851;-69
2023/03/27 10:03:40;;;;;;;;;;;;;;;10.68;50.07;97134.44;4160037;28;6514;-70
2023/03/27 10:05:45;;;;;;;;;;;;;;;10.70;49.79;97150.94;4157477;28;5856;-70
2023/03/27 10:07:48;;;;;;;;;;;;;;;10.77;50.06;97149.22;4161268;28;5754;-69
2023/03/27 10:10:09;;;;;;;;;;;;;;;10.88;49.97;97146.09;4154524;28;5849;-69
2023/03/27 10:12:19;;;;;;;;;;;;;;;10.79;49.51;97149.84;4155949;28;6658;-69
2023/03/27 10:14:25;;;;;;;;;;;;;;;10.71;49.76;97157.88;4161159;28;5102;-69
2023/03/27 10:16:29;;;;;;;;;;;;;;;10.65;49.88;97161.28;4151483;28;5854;-69
2023/03/27 10:18:35;;;;;;;;;;;;;;;10.65;49.41;97155.97;4158220;28;5763;-68
2023/03/27 10:20:48;;;;;;;;;;;;;;;10.61;49.44;97160.78;4151485;28;5850;-68
2023/03/27 10:22:54;;;;;;;;;;;;;;;10.73;49.48;97169.06;4159980;28;5848;-69
2023/03/27 10:24:59;;;;;;;;;;;;;;;10.68;49.08;97187.34;4151440;28;5823;-69
2023/03/27 10:27:10;;;;;;;;;;;;;;;10.48;49.25;97171.22;4159680;28;5842;-69
2023/03/27 10:29:26;;;;;;;;;;;;;;;10.46;49.05;97178.50;4159892;28;5747;-69
2023/03/27 10:31:32;;;;;;;;;;;;;;;10.47;49.22;97174.84;4158882;28;5730;-70
2023/03/27 10:33:36;;;;;;;;;;;;;;;10.58;48.92;97168.28;4166744;28;5734;-69
2023/03/27 10:35:43;;;;;;;;;;;;;;;10.69;48.78;97173.09;4161553;28;5742;-68
2023/03/27 10:37:49;;;;;;;;;;;;;;;10.84;49.09;97171.25;4157480;28;5756;-69
2023/03/27 10:39:55;;;;;;;;;;;;;;;10.90;48.50;97175.81;4155047;28;5756;-69
2023/03/27 10:42:01;;;;;;;;;;;;;;;10.75;48.45;97188.22;4160156;28;5753;-70
2023/03/27 10:44:13;;;;;;;;;;;;;;;10.64;48.64;97193.97;4164231;28;5793;-70
2023/03/27 10:46:20;;;;;;;;;;;;;;;10.53;48.63;97181.22;4159522;28;5744;-69
2023/03/27 10:48:39;;;;;;;;;;;;;;;10.58;48.50;97182.31;4157543;28;5864;-70
2023/03/27 10:50:52;;;;;;;;;;;;;;;10.60;48.07;97190.06;4166227;28;5723;-69
2023/03/27 10:53:04;;;;;;;;;;;;;;;10.65;48.06;97187.72;4159651;28;5776;-69
2023/03/27 10:55:25;;;;;;;;;;;;;;;10.65;48.15;97193.81;4153401;28;6073;-69
2023/03/27 10:57:30;;;;;;;;;;;;;;;10.54;48.07;97196.09;4162067;28;6970;-69
2023/03/27 11:00:00;;;;;;;;;;;;;;;10.28;47.96;97192.06;4163535;28;5950;-70
2023/03/27 11:02:27;;;;;;;;;;;;;;;10.06;47.83;97185.00;4149261;28;5788;-70
2023/03/27 11:04:39;;;;;;;;;;;;;;;9.99;48.46;97192.00;4159258;28;5850;-70
2023/03/27 11:06:46;;;;;;;;;;;;;;;10.04;47.92;97189.66;4165259;28;5879;-70
2023/03/27 11:08:57;;;;;;;;;;;;;;;9.99;48.09;97190.19;4157867;28;5748;-69
2023/03/27 11:11:07;;;;;;;;;;;;;;;9.88;47.73;97207.28;4155161;28;5748;-62
2023/03/27 11:13:33;;;;;;;;;;;;;;;9.83;48.02;97201.72;4151040;28;5830;-64
2023/03/27 11:16:10;;;;;;;;;;;;;;;10.04;47.76;97223.97;4153364;28;5765;-63
2023/03/27 11:18:18;;;;;;;;;;;;;;;10.13;47.14;97215.00;4158013;28;5958;-69
2023/03/27 11:20:26;;;;;;;;;;;;;;;10.07;47.36;97216.50;4155612;28;5752;-69
2023/03/27 11:22:32;;;;;;;;;;;;;;;10.02;47.39;97218.06;4152301;28;5760;-69
2023/03/27 11:24:40;;;;;;;;;;;;;;;10.10;47.28;97224.09;4163521;28;5968;-69
2023/03/27 11:26:52;;;;;;;;;;;;;;;10.20;46.75;97231.78;4156565;28;5756;-69
2023/03/27 11:29:01;;;;;;;;;;;;;;;10.17;47.13;97237.41;4156920;28;6527;-69
2023/03/27 11:31:14;;;;;;;;;;;;;;;10.25;46.65;97253.22;4150486;28;5859;-68
2023/03/27 11:33:40;;;;;;;;;;;;;;;10.12;46.13;97255.63;4159305;28;5751;-69
2023/03/27 11:35:48;;;;;;;;;;;;;;;9.90;46.54;97252.00;4160508;28;5734;-70
2023/03/27 11:37:56;;;;;;;;;;;;;;;9.93;46.42;97254.28;4158263;28;5771;-69
2023/03/27 11:40:05;;;;;;;;;;;;;;;10.07;46.36;97250.84;4158773;28;5771;-69
2023/03/27 11:42:16;;;;;;;;;;;;;;;10.14;46.18;97245.69;4155959;28;5835;-69
2023/03/27 11:44:20;;;;;;;;;;;;;;;10.24;46.00;97248.13;4150990;28;5832;-70
2023/03/27 11:46:44;;;;;;;;;;;;;;;10.38;45.58;97271.09;4150658;28;5925;-68
2023/03/27 11:49:04;;;;;;;;;;;;;;;10.37;45.80;97248.31;4161660;28;5833;-70
2023/03/27 11:51:19;;;;;;;;;;;;;;;10.43;45.73;97255.53;4161713;28;5752;-70
2023/03/27 11:53:42;;;;;;;;;;;;;;;10.52;45.66;97262.34;4158974;28;5988;-69
2023/03/27 11:55:59;;;;;;;;;;;;;;;10.56;45.42;97268.13;4154895;28;5981;-69
2023/03/27 11:58:17;;;;;;;;;;;;;;;10.52;45.32;97282.69;4157905;28;5883;-69
2023/03/27 12:00:28;;;;;;;;;;;;;;;10.40;45.28;97291.03;4155592;28;5826;-69
2023/03/27 12:02:51;;;;;;;;;;;;;;;10.28;45.73;97281.91;4162816;28;6445;-69
2023/03/27 12:05:02;;;;;;;;;;;;;;;10.35;45.37;97290.78;4166679;28;5857;-69
2023/03/27 12:07:14;;;;;;;;;;;;;;;10.39;45.17;97289.41;4158701;28;5729;-69
2023/03/27 12:09:55;;;;;;;;;;;;;;;10.42;45.19;97294.34;4158413;28;5752;-69
2023/03/27 12:12:13;;;;;;;;;;;;;;;10.51;45.07;97292.44;4150675;28;5751;-70
2023/03/27 12:14:35;;;;;;;;;;;;;;;10.61;44.87;97292.19;4154344;28;5819;-69
2023/03/27 12:16:55;;;;;;;;;;;;;;;10.64;44.73;97300.56;4149318;28;5892;-69
2023/03/27 12:19:18;;;;;;;;;;;;;;;10.79;44.95;97308.53;4154685;28;5759;-68
2023/03/27 12:21:46;;;;;;;;;;;;;;;10.80;44.53;97307.50;4157510;28;5762;-70
2023/03/27 12:24:04;;;;;;;;;;;;;;;10.84;44.58;97316.72;4159526;28;5978;-70
2023/03/27 12:26:25;;;;;;;;;;;;;;;10.79;44.36;97316.47;4164806;28;5759;-70
2023/03/27 12:28:46;;;;;;;;;;;;;;;10.80;44.71;97323.38;4168686;28;5754;-69
2023/03/27 12:30:57;;;;;;;;;;;;;;;10.83;44.61;97317.72;4161105;28;5936;-70
2023/03/27 12:33:30;;;;;;;;;;;;;;;10.81;44.30;97325.03;4164590;28;5808;-69
2023/03/27 12:35:41;;;;;;;;;;;;;;;10.90;44.73;97328.41;4137650;28;6454;-69
2023/03/27 12:37:55;;;;;;;;;;;;;;;10.83;44.45;97327.47;4164280;28;5913;-69
2023/03/27 12:40:00;;;;;;;;;;;;;;;10.83;44.25;97328.31;4164521;28;5697;-69
2023/03/27 12:42:13;;;;;;;;;;;;;;;10.82;44.44;97333.78;4161684;28;5737;-69
2023/03/27 12:44:20;;;;;;;;;;;;;;;10.95;44.22;97336.59;4158719;28;6113;-69
2023/03/27 12:46:37;;;;;;;;;;;;;;;11.07;44.28;97335.16;4166347;28;5872;-69
2023/03/27 12:48:57;;;;;;;;;;;;;;;11.11;43.89;97343.56;4162385;28;5841;-69
2023/03/27 12:51:12;;;;;;;;;;;;;;;11.02;43.69;97333.06;4160696;28;5729;-69
2023/03/27 12:53:54;;;;;;;;;;;;;;;11.01;43.72;97335.91;4165353;28;5730;-69
2023/03/27 12:56:25;;;;;;;;;;;;;;;11.08;43.64;97331.50;4160892;28;6076;-69
2023/03/27 12:58:33;;;;;;;;;;;;;;;11.16;43.37;97338.53;4159746;28;5909;-69
2023/03/27 13:00:37;;;;;;;;;;;;;;;11.09;43.72;97341.06;4154826;28;6625;-69
2023/03/27 13:03:10;;;;;;;;;;;;;;;11.09;43.87;97359.59;4159731;28;6026;-70
2023/03/27 13:06:01;;;;;;;;;;;;;;;10.91;43.62;97367.09;4160440;28;5735;-70
2023/03/27 13:08:28;;;;;;;;;;;;;;;10.67;43.87;97361.03;4089883;28;5742;-69
2023/03/27 13:10:45;;;;;;;;;;;;;;;10.79;43.58;97369.34;4110972;28;5714;-69
2023/03/27 13:13:05;;;;;;;;;;;;;;;10.88;43.64;97368.28;4108543;28;5734;-69
2023/03/27 13:15:22;;;;;;;;;;;;;;;10.95;43.08;97371.81;4107393;28;5902;-70
2023/03/27 13:17:46;;;;;;;;;;;;;;;10.94;43.30;97372.81;4105117;28;5917;-69
2023/03/27 13:19:56;;;;;;;;;;;;;;;10.91;43.07;97373.19;4107375;28;5960;-69
2023/03/27 13:22:26;;;;;;;;;;;;;;;10.70;43.14;97383.66;4109692;28;5833;-69
2023/03/27 13:24:53;;;;;;;;;;;;;;;10.57;42.74;97383.44;4116197;28;5727;-69
2023/03/27 13:27:12;;;;;;;;;;;;;;;10.48;42.78;97388.78;4109409;28;5746;-69
2023/03/27 13:29:18;;;;;;;;;;;;;;;10.36;43.17;97387.56;4107928;28;5896;-69
2023/03/27 13:32:00;;;;;;;;;;;;;;;10.35;42.84;97399.13;4108552;28;5757;-69
2023/03/27 13:34:15;;;;;;;;;;;;;;;10.41;42.74;97393.13;4112885;28;5758;-69
2023/03/27 13:36:23;;;;;;;;;;;;;;;10.52;43.00;97404.28;4113453;28;5868;-69
2023/03/27 13:39:08;;;;;;;;;;;;;;;10.66;42.46;97400.88;4111687;28;5774;-70
2023/03/27 13:41:51;;;;;;;;;;;;;;;10.76;42.73;97396.16;4105516;28;5754;-70
2023/03/27 13:44:00;;;;;;;;;;;;;;;10.82;42.29;97408.66;4074513;28;6720;-68
2023/03/27 13:46:06;;;;;;;;;;;;;;;10.79;42.52;97409.84;4104770;28;6627;-68
2023/03/27 13:48:32;;;;;;;;;;;;;;;10.75;42.17;97407.72;4106144;28;5918;-69
2023/03/27 13:51:08;;;;;;;;;;;;;;;10.72;42.15;97405.44;4107822;28;5868;-69
2023/03/27 13:53:22;;;;;;;;;;;;;;;10.62;42.15;97416.25;4108138;28;5917;-70
2023/03/27 13:55:50;;;;;;;;;;;;;;;10.63;41.96;97417.06;4112065;28;5965;-68
2023/03/27 13:58:09;;;;;;;;;;;;;;;10.70;41.71;97413.56;4107179;28;5844;-69
2023/03/27 14:00:48;;;;;;;;;;;;;;;10.72;41.90;97423.94;4103700;28;5990;-69
2023/03/27 14:03:17;;;;;;;;;;;;;;;10.78;42.15;97424.06;4112610;28;5829;-69
2023/03/27 14:05:36;;;;;;;;;;;;;;;10.65;41.91;97429.16;4109880;28;5839;-68
2023/03/27 14:08:11;;;;;;;;;;;;;;;10.58;41.75;97424.72;4112520;28;6730;-69
2023/03/27 14:10:33;;;;;;;;;;;;;;;10.42;41.78;97423.88;4113476;28;5838;-69
2023/03/27 14:13:00;;;;;;;;;;;;;;;10.43;41.69;97440.56;4109210;28;5894;-69
2023/03/27 14:15:20;;;;;;;;;;;;;;;10.41;41.53;97446.00;4105135;28;5847;-69
2023/03/27 14:17:40;;;;;;;;;;;;;;;10.31;41.87;97437.50;4102242;28;5840;-69
2023/03/27 14:20:01;;;;;;;;;;;;;;;10.28;41.47;97442.28;4120644;28;5787;-69
2023/03/27 14:22:13;;;;;;;;;;;;;;;10.43;41.40;97444.00;4152220;28;5850;-69
2023/03/27 14:24:25;;;;;;;;;;;;;;;10.60;41.42;97442.06;4162775;28;6506;-69
2023/03/27 14:26:30;;;;;;;;;;;;;;;10.62;40.99;97447.16;4159131;28;5742;-68
2023/03/27 14:28:35;;;;;;;;;;;;;;;10.68;41.27;97454.41;4151786;28;5763;-68
2023/03/27 14:30:46;;;;;;;;;;;;;;;10.69;40.98;97450.75;4164330;28;5901;-68
2023/03/27 14:32:50;;;;;;;;;;;;;;;10.61;41.15;97456.09;4152638;28;5106;-69
2023/03/27 14:34:53;;;;;;;;;;;;;;;10.60;41.15;97449.16;4151864;28;7753;-69
2023/03/27 14:36:57;;;;;;;;;;;;;;;10.69;40.71;97461.34;4159076;28;5752;-69
2023/03/27 14:39:01;;;;;;;;;;;;;;;10.55;40.65;97464.75;4156322;28;5772;-68
2023/03/27 14:41:05;;;;;;;;;;;;;;;10.61;40.87;97456.09;4157323;28;5925;-69
2023/03/27 14:43:12;;;;;;;;;;;;;;;10.73;40.90;97454.69;4162512;28;5734;-69
2023/03/27 14:45:20;;;;;;;;;;;;;;;10.80;40.55;97450.34;4157658;28;5750;-68
2023/03/27 14:47:25;;;;;;;;;;;;;;;10.87;40.67;97456.53;4158761;28;5733;-69
2023/03/27 14:49:35;;;;;;;;;;;;;;;10.93;40.73;97460.31;4159809;28;5755;-70
2023/03/27 14:51:41;;;;;;;;;;;;;;;10.97;40.36;97467.69;4159300;28;5738;-69
2023/03/27 14:53:48;;;;;;;;;;;;;;;10.97;40.36;97457.09;4156299;28;5815;-69
2023/03/27 14:55:53;;;;;;;;;;;;;;;10.94;40.44;97462.78;4156087;28;5965;-69
2023/03/27 14:58:01;;;;;;;;;;;;;;;10.99;40.70;97455.13;4162927;28;5759;-68
2023/03/27 15:00:06;;;;;;;;;;;;;;;11.01;40.43;97458.41;4160765;28;5910;-68
2023/03/27 15:02:19;;;;;;;;;;;;;;;11.00;40.14;97467.34;4159997;28;5797;-69
2023/03/27 15:04:24;;;;;;;;;;;;;;;10.87;40.11;97469.75;4153304;28;5929;-69
2023/03/27 15:06:35;;;;;;;;;;;;;;;10.77;40.24;97469.22;4158731;28;5958;-69
2023/03/27 15:08:38;;;;;;;;;;;;;;;10.70;40.45;97469.09;4151256;28;5744;-69
2023/03/27 15:10:49;;;;;;;;;;;;;;;10.73;40.27;97468.72;4159722;28;5730;-69
2023/03/27 15:12:52;;;;;;;;;;;;;;;10.89;40.21;97464.31;4162791;28;5722;-69
2023/03/27 15:14:58;;;;;;;;;;;;;;;10.93;39.89;97466.41;4162543;28;5749;-69
2023/03/27 15:17:05;;;;;;;;;;;;;;;10.95;40.00;97474.16;4161289;28;5750;-68
2023/03/27 15:19:16;;;;;;;;;;;;;;;11.02;40.21;97481.22;4152920;28;5857;-69
2023/03/27 15:21:33;;;;;;;;;;;;;;;10.87;39.91;97466.28;4159200;28;5832;-69
2023/03/27 15:23:41;;;;;;;;;;;;;;;10.82;40.04;97466.03;4161984;28;5770;-69
2023/03/27 15:25:54;;;;;;;;;;;;;;;10.88;39.75;97462.69;4159686;28;5869;-69
2023/03/27 15:28:03;;;;;;;;;;;;;;;10.96;40.00;97466.06;4167126;28;5733;-69
2023/03/27 15:30:30;;;;;;;;;;;;;;;10.93;40.01;97465.59;4167150;28;5726;-69
2023/03/27 15:32:43;;;;;;;;;;;;;;;10.83;39.52;97471.13;4162604;28;5833;-69
2023/03/27 15:34:50;;;;;;;;;;;;;;;10.87;40.04;97472.41;4150760;28;5993;-69
2023/03/27 15:36:58;;;;;;;;;;;;;;;10.88;39.63;97473.25;4158695;28;5771;-70